sensor_id;sensor_type;location;lat;lon;timestamp;P1;durP1;ratioP1;P2;durP2;ratioP2
73661;SDS011;61956;52.540;13.382;2022-07-21T00:00:21;5.53;;;1.20;;
73661;SDS011;61956;52.540;13.382;2022-07-21T00:02:56;5.40;;;1.23;;
73661;SDS011;61956;52.540;13.382;2022-07-21T00:05:27;4.85;;;1.75;;
73661;SDS011;61956;52.540;13.382;2022-07-21T00:07:56;5.77;;;1.60;;
73661;SDS011;61956;52.540;13.382;2022-07-21T00:10:26;4.30;;;1.10;;
73661;SDS011;61956;52.540;13.382;2022-07-21T00:12:55;4.07;;;1.40;;
73661;SDS011;61956;52.540;13.382;2022-07-21T00:15:26;3.30;;;1.17;;
73661;SDS011;61956;52.540;13.382;2022-07-21T00:17:59;7.03;;;2.05;;
73661;SDS011;61956;52.540;13.382;2022-07-21T00:20:28;3.63;;;1.17;;
73661;SDS011;61956;52.540;13.382;2022-07-21T00:22:58;4.05;;;1.02;;
73661;SDS011;61956;52.540;13.382;2022-07-21T00:25:27;4.45;;;1.27;;
73661;SDS011;61956;52.540;13.382;2022-07-21T00:27:57;6.30;;;1.40;;
73661;SDS011;61956;52.540;13.382;2022-07-21T00:30:26;3.80;;;1.10;;
73661;SDS011;61956;52.540;13.382;2022-07-21T00:32:55;4.70;;;1.60;;
73661;SDS011;61956;52.540;13.382;2022-07-21T00:35:27;4.38;;;1.40;;
73661;SDS011;61956;52.540;13.382;2022-07-21T00:37:56;4.75;;;1.23;;
73661;SDS011;61956;52.540;13.382;2022-07-21T00:40:26;4.50;;;1.13;;
73661;SDS011;61956;52.540;13.382;2022-07-21T00:42:56;4.15;;;1.40;;
73661;SDS011;61956;52.540;13.382;2022-07-21T00:45:26;3.10;;;1.00;;
73661;SDS011;61956;52.540;13.382;2022-07-21T00:47:55;4.45;;;1.10;;
73661;SDS011;61956;52.540;13.382;2022-07-21T00:50:26;4.30;;;1.20;;
73661;SDS011;61956;52.540;13.382;2022-07-21T00:52:58;3.63;;;1.17;;
73661;SDS011;61956;52.540;13.382;2022-07-21T00:55:27;3.80;;;1.48;;
73661;SDS011;61956;52.540;13.382;2022-07-21T00:57:56;5.10;;;1.70;;
73661;SDS011;61956;52.540;13.382;2022-07-21T01:00:26;4.38;;;1.30;;
73661;SDS011;61956;52.540;13.382;2022-07-21T01:02:58;5.28;;;1.40;;
73661;SDS011;61956;52.540;13.382;2022-07-21T01:05:30;4.05;;;1.65;;
73661;SDS011;61956;52.540;13.382;2022-07-21T01:07:59;6.35;;;2.13;;
73661;SDS011;61956;52.540;13.382;2022-07-21T01:10:30;6.03;;;1.57;;
73661;SDS011;61956;52.540;13.382;2022-07-21T01:13:00;3.35;;;1.15;;
73661;SDS011;61956;52.540;13.382;2022-07-21T01:15:30;2.42;;;0.85;;
73661;SDS011;61956;52.540;13.382;2022-07-21T01:17:59;3.05;;;1.13;;
73661;SDS011;61956;52.540;13.382;2022-07-21T01:20:34;1.77;;;0.55;;
73661;SDS011;61956;52.540;13.382;2022-07-21T01:23:06;3.77;;;1.17;;
73661;SDS011;61956;52.540;13.382;2022-07-21T01:25:35;4.68;;;1.45;;
73661;SDS011;61956;52.540;13.382;2022-07-21T01:28:04;4.85;;;1.98;;
73661;SDS011;61956;52.540;13.382;2022-07-21T01:30:33;4.80;;;1.50;;
73661;SDS011;61956;52.540;13.382;2022-07-21T01:33:02;5.47;;;1.30;;
73661;SDS011;61956;52.540;13.382;2022-07-21T01:35:32;3.57;;;1.10;;
73661;SDS011;61956;52.540;13.382;2022-07-21T01:38:01;4.25;;;1.42;;
73661;SDS011;61956;52.540;13.382;2022-07-21T01:40:57;4.25;;;1.35;;
73661;SDS011;61956;52.540;13.382;2022-07-21T01:43:39;5.90;;;1.30;;
73661;SDS011;61956;52.540;13.382;2022-07-21T01:46:10;4.13;;;1.52;;
73661;SDS011;61956;52.540;13.382;2022-07-21T01:48:41;4.73;;;1.73;;
73661;SDS011;61956;52.540;13.382;2022-07-21T01:51:11;6.32;;;1.63;;
73661;SDS011;61956;52.540;13.382;2022-07-21T01:53:41;6.20;;;1.55;;
73661;SDS011;61956;52.540;13.382;2022-07-21T01:56:12;2.70;;;0.80;;
73661;SDS011;61956;52.540;13.382;2022-07-21T01:58:42;4.05;;;1.38;;
73661;SDS011;61956;52.540;13.382;2022-07-21T02:01:11;4.80;;;1.90;;
73661;SDS011;61956;52.540;13.382;2022-07-21T02:03:40;5.80;;;1.63;;
73661;SDS011;61956;52.540;13.382;2022-07-21T02:06:09;5.53;;;2.13;;
73661;SDS011;61956;52.540;13.382;2022-07-21T02:08:39;3.70;;;1.33;;
73661;SDS011;61956;52.540;13.382;2022-07-21T02:11:09;3.28;;;1.00;;
73661;SDS011;61956;52.540;13.382;2022-07-21T02:13:42;2.33;;;0.80;;
73661;SDS011;61956;52.540;13.382;2022-07-21T02:16:11;4.88;;;1.58;;
73661;SDS011;61956;52.540;13.382;2022-07-21T02:18:41;4.05;;;1.15;;
73661;SDS011;61956;52.540;13.382;2022-07-21T02:21:12;5.32;;;1.45;;
73661;SDS011;61956;52.540;13.382;2022-07-21T02:23:42;4.82;;;2.10;;
73661;SDS011;61956;52.540;13.382;2022-07-21T02:26:13;4.67;;;1.70;;
73661;SDS011;61956;52.540;13.382;2022-07-21T02:28:42;3.17;;;1.20;;
73661;SDS011;61956;52.540;13.382;2022-07-21T02:31:12;3.42;;;1.20;;
73661;SDS011;61956;52.540;13.382;2022-07-21T02:33:41;4.32;;;1.35;;
73661;SDS011;61956;52.540;13.382;2022-07-21T02:36:10;4.18;;;1.70;;
73661;SDS011;61956;52.540;13.382;2022-07-21T02:38:40;4.60;;;1.20;;
73661;SDS011;61956;52.540;13.382;2022-07-21T02:41:09;4.45;;;1.42;;
73661;SDS011;61956;52.540;13.382;2022-07-21T02:43:40;4.40;;;1.38;;
73661;SDS011;61956;52.540;13.382;2022-07-21T02:46:09;4.25;;;1.58;;
73661;SDS011;61956;52.540;13.382;2022-07-21T02:48:38;5.93;;;1.45;;
73661;SDS011;61956;52.540;13.382;2022-07-21T02:51:07;4.80;;;2.03;;
73661;SDS011;61956;52.540;13.382;2022-07-21T02:53:36;4.78;;;1.60;;
73661;SDS011;61956;52.540;13.382;2022-07-21T02:56:06;4.28;;;1.48;;
73661;SDS011;61956;52.540;13.382;2022-07-21T02:58:35;4.20;;;1.48;;
73661;SDS011;61956;52.540;13.382;2022-07-21T03:01:07;5.78;;;1.88;;
73661;SDS011;61956;52.540;13.382;2022-07-21T03:03:36;3.10;;;0.80;;
73661;SDS011;61956;52.540;13.382;2022-07-21T03:06:05;5.75;;;1.85;;
73661;SDS011;61956;52.540;13.382;2022-07-21T03:08:35;3.45;;;1.20;;
73661;SDS011;61956;52.540;13.382;2022-07-21T03:11:04;3.72;;;1.40;;
73661;SDS011;61956;52.540;13.382;2022-07-21T03:13:33;4.72;;;1.88;;
73661;SDS011;61956;52.540;13.382;2022-07-21T03:16:02;4.70;;;1.60;;
73661;SDS011;61956;52.540;13.382;2022-07-21T03:18:35;4.20;;;1.17;;
73661;SDS011;61956;52.540;13.382;2022-07-21T03:21:04;3.17;;;1.02;;
73661;SDS011;61956;52.540;13.382;2022-07-21T03:23:33;3.78;;;1.30;;
73661;SDS011;61956;52.540;13.382;2022-07-21T03:26:02;3.47;;;1.23;;
73661;SDS011;61956;52.540;13.382;2022-07-21T03:28:32;4.80;;;1.57;;
73661;SDS011;61956;52.540;13.382;2022-07-21T03:31:01;3.65;;;1.13;;
73661;SDS011;61956;52.540;13.382;2022-07-21T03:33:30;4.38;;;1.38;;
73661;SDS011;61956;52.540;13.382;2022-07-21T03:36:02;3.70;;;1.13;;
73661;SDS011;61956;52.540;13.382;2022-07-21T03:38:32;4.78;;;1.80;;
73661;SDS011;61956;52.540;13.382;2022-07-21T03:41:01;4.03;;;1.30;;
73661;SDS011;61956;52.540;13.382;2022-07-21T03:43:30;3.60;;;1.00;;
73661;SDS011;61956;52.540;13.382;2022-07-21T03:45:59;4.55;;;1.50;;
73661;SDS011;61956;52.540;13.382;2022-07-21T03:48:28;4.38;;;1.55;;
73661;SDS011;61956;52.540;13.382;2022-07-21T03:50:58;4.05;;;1.20;;
73661;SDS011;61956;52.540;13.382;2022-07-21T03:53:29;4.63;;;1.43;;
73661;SDS011;61956;52.540;13.382;2022-07-21T03:55:58;5.07;;;1.50;;
73661;SDS011;61956;52.540;13.382;2022-07-21T03:58:27;4.45;;;1.67;;
73661;SDS011;61956;52.540;13.382;2022-07-21T04:00:56;4.63;;;1.55;;
73661;SDS011;61956;52.540;13.382;2022-07-21T04:03:25;6.10;;;1.50;;
73661;SDS011;61956;52.540;13.382;2022-07-21T04:05:56;3.70;;;1.13;;
73661;SDS011;61956;52.540;13.382;2022-07-21T04:08:25;4.90;;;1.10;;
73661;SDS011;61956;52.540;13.382;2022-07-21T04:10:57;4.15;;;1.02;;
73661;SDS011;61956;52.540;13.382;2022-07-21T04:13:26;5.93;;;2.25;;
73661;SDS011;61956;52.540;13.382;2022-07-21T04:15:55;4.50;;;1.80;;
73661;SDS011;61956;52.540;13.382;2022-07-21T04:18:24;4.47;;;1.60;;
73661;SDS011;61956;52.540;13.382;2022-07-21T04:20:53;3.50;;;1.20;;
73661;SDS011;61956;52.540;13.382;2022-07-21T04:23:22;6.00;;;1.98;;
73661;SDS011;61956;52.540;13.382;2022-07-21T04:25:51;5.60;;;1.27;;
73661;SDS011;61956;52.540;13.382;2022-07-21T04:28:23;4.20;;;1.80;;
73661;SDS011;61956;52.540;13.382;2022-07-21T04:30:52;4.33;;;1.63;;
73661;SDS011;61956;52.540;13.382;2022-07-21T04:33:21;4.63;;;1.45;;
73661;SDS011;61956;52.540;13.382;2022-07-21T04:35:50;4.00;;;1.13;;
73661;SDS011;61956;52.540;13.382;2022-07-21T04:38:19;5.80;;;1.70;;
73661;SDS011;61956;52.540;13.382;2022-07-21T04:40:48;6.30;;;1.73;;
73661;SDS011;61956;52.540;13.382;2022-07-21T04:43:17;5.13;;;1.63;;
73661;SDS011;61956;52.540;13.382;2022-07-21T04:45:49;5.25;;;1.63;;
73661;SDS011;61956;52.540;13.382;2022-07-21T04:48:18;4.30;;;1.52;;
73661;SDS011;61956;52.540;13.382;2022-07-21T04:50:48;6.97;;;1.35;;
73661;SDS011;61956;52.540;13.382;2022-07-21T04:53:18;7.15;;;2.90;;
73661;SDS011;61956;52.540;13.382;2022-07-21T04:55:47;3.37;;;1.20;;
73661;SDS011;61956;52.540;13.382;2022-07-21T04:58:16;3.33;;;1.05;;
73661;SDS011;61956;52.540;13.382;2022-07-21T05:00:45;7.25;;;2.08;;
73661;SDS011;61956;52.540;13.382;2022-07-21T05:03:17;5.28;;;2.40;;
73661;SDS011;61956;52.540;13.382;2022-07-21T05:05:46;7.07;;;3.05;;
73661;SDS011;61956;52.540;13.382;2022-07-21T05:08:15;8.27;;;4.30;;
73661;SDS011;61956;52.540;13.382;2022-07-21T05:10:44;6.60;;;3.10;;
73661;SDS011;61956;52.540;13.382;2022-07-21T05:13:13;6.50;;;2.67;;
73661;SDS011;61956;52.540;13.382;2022-07-21T05:15:42;8.45;;;3.78;;
73661;SDS011;61956;52.540;13.382;2022-07-21T05:18:14;8.10;;;4.07;;
73661;SDS011;61956;52.540;13.382;2022-07-21T05:20:43;11.60;;;3.47;;
73661;SDS011;61956;52.540;13.382;2022-07-21T05:23:12;7.95;;;3.80;;
73661;SDS011;61956;52.540;13.382;2022-07-21T05:25:41;7.53;;;3.58;;
73661;SDS011;61956;52.540;13.382;2022-07-21T05:28:10;10.43;;;4.30;;
73661;SDS011;61956;52.540;13.382;2022-07-21T05:30:40;6.68;;;3.30;;
73661;SDS011;61956;52.540;13.382;2022-07-21T05:33:09;7.77;;;3.03;;
73661;SDS011;61956;52.540;13.382;2022-07-21T05:35:40;6.78;;;3.53;;
73661;SDS011;61956;52.540;13.382;2022-07-21T05:38:09;11.07;;;3.83;;
73661;SDS011;61956;52.540;13.382;2022-07-21T05:40:41;9.27;;;4.55;;
73661;SDS011;61956;52.540;13.382;2022-07-21T05:43:10;11.13;;;4.63;;
73661;SDS011;61956;52.540;13.382;2022-07-21T05:45:39;13.57;;;6.73;;
73661;SDS011;61956;52.540;13.382;2022-07-21T05:48:08;9.00;;;4.93;;
73661;SDS011;61956;52.540;13.382;2022-07-21T05:50:37;13.05;;;5.93;;
73661;SDS011;61956;52.540;13.382;2022-07-21T05:53:09;9.88;;;4.05;;
73661;SDS011;61956;52.540;13.382;2022-07-21T05:55:38;8.13;;;4.30;;
73661;SDS011;61956;52.540;13.382;2022-07-21T05:58:07;13.93;;;5.40;;
73661;SDS011;61956;52.540;13.382;2022-07-21T06:00:37;10.75;;;5.72;;
73661;SDS011;61956;52.540;13.382;2022-07-21T06:03:06;11.30;;;6.15;;
73661;SDS011;61956;52.540;13.382;2022-07-21T06:05:35;11.32;;;5.65;;
73661;SDS011;61956;52.540;13.382;2022-07-21T06:08:07;9.57;;;5.55;;
73661;SDS011;61956;52.540;13.382;2022-07-21T06:10:36;9.00;;;4.70;;
73661;SDS011;61956;52.540;13.382;2022-07-21T06:13:05;14.88;;;6.95;;
73661;SDS011;61956;52.540;13.382;2022-07-21T06:15:34;13.43;;;6.25;;
73661;SDS011;61956;52.540;13.382;2022-07-21T06:18:03;9.25;;;5.32;;
73661;SDS011;61956;52.540;13.382;2022-07-21T06:20:33;11.38;;;5.53;;
73661;SDS011;61956;52.540;13.382;2022-07-21T06:23:02;10.47;;;4.33;;
73661;SDS011;61956;52.540;13.382;2022-07-21T06:25:33;7.82;;;3.70;;
73661;SDS011;61956;52.540;13.382;2022-07-21T06:28:03;9.65;;;5.05;;
73661;SDS011;61956;52.540;13.382;2022-07-21T06:30:32;9.05;;;4.60;;
73661;SDS011;61956;52.540;13.382;2022-07-21T06:33:01;7.60;;;3.42;;
73661;SDS011;61956;52.540;13.382;2022-07-21T06:35:31;9.33;;;4.43;;
73661;SDS011;61956;52.540;13.382;2022-07-21T06:38:00;7.63;;;3.53;;
73661;SDS011;61956;52.540;13.382;2022-07-21T06:40:29;8.52;;;4.68;;
73661;SDS011;61956;52.540;13.382;2022-07-21T06:43:01;7.93;;;3.85;;
73661;SDS011;61956;52.540;13.382;2022-07-21T06:45:30;9.38;;;5.65;;
73661;SDS011;61956;52.540;13.382;2022-07-21T06:48:00;7.63;;;3.97;;
73661;SDS011;61956;52.540;13.382;2022-07-21T06:50:31;7.43;;;3.45;;
73661;SDS011;61956;52.540;13.382;2022-07-21T06:53:00;6.55;;;3.50;;
73661;SDS011;61956;52.540;13.382;2022-07-21T06:55:33;7.30;;;3.55;;
73661;SDS011;61956;52.540;13.382;2022-07-21T06:58:09;8.38;;;4.55;;
73661;SDS011;61956;52.540;13.382;2022-07-21T07:00:41;14.90;;;5.87;;
73661;SDS011;61956;52.540;13.382;2022-07-21T07:03:11;7.80;;;4.10;;
73661;SDS011;61956;52.540;13.382;2022-07-21T07:05:42;10.00;;;5.90;;
73661;SDS011;61956;52.540;13.382;2022-07-21T07:08:13;9.65;;;5.80;;
73661;SDS011;61956;52.540;13.382;2022-07-21T07:10:45;10.88;;;5.00;;
73661;SDS011;61956;52.540;13.382;2022-07-21T07:13:15;9.00;;;4.93;;
73661;SDS011;61956;52.540;13.382;2022-07-21T07:15:44;8.30;;;3.38;;
73661;SDS011;61956;52.540;13.382;2022-07-21T07:18:13;9.25;;;4.40;;
73661;SDS011;61956;52.540;13.382;2022-07-21T07:20:42;7.97;;;3.78;;
73661;SDS011;61956;52.540;13.382;2022-07-21T07:23:11;10.73;;;3.63;;
73661;SDS011;61956;52.540;13.382;2022-07-21T07:25:40;11.83;;;5.90;;
73661;SDS011;61956;52.540;13.382;2022-07-21T07:28:12;11.75;;;6.13;;
73661;SDS011;61956;52.540;13.382;2022-07-21T07:30:41;7.95;;;4.75;;
73661;SDS011;61956;52.540;13.382;2022-07-21T07:33:10;6.22;;;2.97;;
73661;SDS011;61956;52.540;13.382;2022-07-21T07:35:39;9.52;;;4.97;;
73661;SDS011;61956;52.540;13.382;2022-07-21T07:38:11;6.07;;;2.93;;
73661;SDS011;61956;52.540;13.382;2022-07-21T07:40:41;7.43;;;3.58;;
73661;SDS011;61956;52.540;13.382;2022-07-21T07:43:14;8.07;;;4.45;;
73661;SDS011;61956;52.540;13.382;2022-07-21T07:45:43;10.43;;;4.00;;
73661;SDS011;61956;52.540;13.382;2022-07-21T07:48:12;8.65;;;3.75;;
73661;SDS011;61956;52.540;13.382;2022-07-21T07:50:41;6.67;;;3.90;;
73661;SDS011;61956;52.540;13.382;2022-07-21T07:53:10;6.78;;;3.47;;
73661;SDS011;61956;52.540;13.382;2022-07-21T07:55:40;11.15;;;5.75;;
73661;SDS011;61956;52.540;13.382;2022-07-21T07:58:09;15.02;;;5.93;;
73661;SDS011;61956;52.540;13.382;2022-07-21T08:00:40;7.63;;;3.40;;
73661;SDS011;61956;52.540;13.382;2022-07-21T08:03:10;9.60;;;4.13;;
73661;SDS011;61956;52.540;13.382;2022-07-21T08:05:39;7.10;;;3.63;;
73661;SDS011;61956;52.540;13.382;2022-07-21T08:08:08;5.95;;;2.33;;
73661;SDS011;61956;52.540;13.382;2022-07-21T08:10:38;6.80;;;3.33;;
73661;SDS011;61956;52.540;13.382;2022-07-21T08:13:09;8.98;;;3.70;;
73661;SDS011;61956;52.540;13.382;2022-07-21T08:15:41;7.97;;;4.33;;
73661;SDS011;61956;52.540;13.382;2022-07-21T08:18:12;9.38;;;4.85;;
73661;SDS011;61956;52.540;13.382;2022-07-21T08:20:43;8.35;;;4.25;;
73661;SDS011;61956;52.540;13.382;2022-07-21T08:23:13;8.45;;;3.35;;
73661;SDS011;61956;52.540;13.382;2022-07-21T08:25:44;6.85;;;3.53;;
73661;SDS011;61956;52.540;13.382;2022-07-21T08:28:13;6.47;;;2.63;;
73661;SDS011;61956;52.540;13.382;2022-07-21T08:30:44;11.77;;;5.43;;
73661;SDS011;61956;52.540;13.382;2022-07-21T08:33:13;7.63;;;3.60;;
73661;SDS011;61956;52.540;13.382;2022-07-21T08:35:43;6.15;;;3.03;;
73661;SDS011;61956;52.540;13.382;2022-07-21T08:38:12;11.25;;;4.85;;
73661;SDS011;61956;52.540;13.382;2022-07-21T08:40:42;6.50;;;2.80;;
73661;SDS011;61956;52.540;13.382;2022-07-21T08:43:14;8.27;;;3.25;;
73661;SDS011;61956;52.540;13.382;2022-07-21T08:45:45;7.05;;;4.45;;
73661;SDS011;61956;52.540;13.382;2022-07-21T08:48:15;6.65;;;3.42;;
73661;SDS011;61956;52.540;13.382;2022-07-21T08:50:52;8.20;;;3.65;;
73661;SDS011;61956;52.540;13.382;2022-07-21T08:53:21;7.30;;;3.43;;
73661;SDS011;61956;52.540;13.382;2022-07-21T08:55:53;8.38;;;4.03;;
73661;SDS011;61956;52.540;13.382;2022-07-21T08:58:23;8.18;;;3.80;;
73661;SDS011;61956;52.540;13.382;2022-07-21T09:12:50;7.13;;;3.20;;
73661;SDS011;61956;52.540;13.382;2022-07-21T09:15:22;6.47;;;2.83;;
73661;SDS011;61956;52.540;13.382;2022-07-21T09:18:04;4.63;;;2.25;;
73661;SDS011;61956;52.540;13.382;2022-07-21T09:20:37;9.07;;;4.38;;
73661;SDS011;61956;52.540;13.382;2022-07-21T09:23:08;5.93;;;2.65;;
73661;SDS011;61956;52.540;13.382;2022-07-21T09:25:41;8.00;;;2.25;;
73661;SDS011;61956;52.540;13.382;2022-07-21T09:28:16;5.67;;;2.20;;
73661;SDS011;61956;52.540;13.382;2022-07-21T09:30:47;8.48;;;3.20;;
73661;SDS011;61956;52.540;13.382;2022-07-21T09:33:19;10.05;;;4.68;;
73661;SDS011;61956;52.540;13.382;2022-07-21T09:35:56;6.13;;;2.83;;
73661;SDS011;61956;52.540;13.382;2022-07-21T09:38:34;5.63;;;1.95;;
73661;SDS011;61956;52.540;13.382;2022-07-21T09:41:08;6.57;;;3.07;;
73661;SDS011;61956;52.540;13.382;2022-07-21T09:43:45;5.65;;;2.60;;
73661;SDS011;61956;52.540;13.382;2022-07-21T09:46:17;7.03;;;3.40;;
73661;SDS011;61956;52.540;13.382;2022-07-21T09:48:50;6.55;;;3.67;;
73661;SDS011;61956;52.540;13.382;2022-07-21T09:51:23;5.78;;;2.70;;
73661;SDS011;61956;52.540;13.382;2022-07-21T09:53:57;9.43;;;2.80;;
73661;SDS011;61956;52.540;13.382;2022-07-21T09:56:29;8.10;;;3.60;;
73661;SDS011;61956;52.540;13.382;2022-07-21T09:59:03;6.30;;;2.95;;
73661;SDS011;61956;52.540;13.382;2022-07-21T10:01:36;5.65;;;2.53;;
73661;SDS011;61956;52.540;13.382;2022-07-21T10:04:06;5.80;;;1.88;;
73661;SDS011;61956;52.540;13.382;2022-07-21T10:06:37;8.83;;;3.63;;
73661;SDS011;61956;52.540;13.382;2022-07-21T10:09:08;4.75;;;2.00;;
73661;SDS011;61956;52.540;13.382;2022-07-21T10:11:39;6.07;;;2.97;;
73661;SDS011;61956;52.540;13.382;2022-07-21T10:14:12;6.65;;;2.47;;
73661;SDS011;61956;52.540;13.382;2022-07-21T10:16:42;4.10;;;1.73;;
73661;SDS011;61956;52.540;13.382;2022-07-21T10:19:13;7.00;;;2.10;;
73661;SDS011;61956;52.540;13.382;2022-07-21T10:21:51;5.45;;;2.30;;
73661;SDS011;61956;52.540;13.382;2022-07-21T10:24:48;7.88;;;2.78;;
73661;SDS011;61956;52.540;13.382;2022-07-21T10:27:20;5.20;;;2.38;;
73661;SDS011;61956;52.540;13.382;2022-07-21T10:29:56;7.25;;;2.83;;
73661;SDS011;61956;52.540;13.382;2022-07-21T10:32:30;5.23;;;2.00;;
73661;SDS011;61956;52.540;13.382;2022-07-21T10:35:03;5.28;;;1.80;;
73661;SDS011;61956;52.540;13.382;2022-07-21T10:37:57;6.32;;;2.22;;
73661;SDS011;61956;52.540;13.382;2022-07-21T10:40:35;7.15;;;2.60;;
73661;SDS011;61956;52.540;13.382;2022-07-21T10:49:10;7.18;;;2.15;;
73661;SDS011;61956;52.540;13.382;2022-07-21T10:55:27;4.55;;;1.77;;
73661;SDS011;61956;52.540;13.382;2022-07-21T11:00:52;5.87;;;1.73;;
73661;SDS011;61956;52.540;13.382;2022-07-21T11:03:26;4.45;;;1.33;;
73661;SDS011;61956;52.540;13.382;2022-07-21T11:08:53;5.53;;;1.95;;
73661;SDS011;61956;52.540;13.382;2022-07-21T11:11:44;7.25;;;1.98;;
73661;SDS011;61956;52.540;13.382;2022-07-21T11:14:36;4.27;;;1.57;;
73661;SDS011;61956;52.540;13.382;2022-07-21T11:17:23;4.18;;;1.50;;
73661;SDS011;61956;52.540;13.382;2022-07-21T11:19:59;3.38;;;1.13;;
73661;SDS011;61956;52.540;13.382;2022-07-21T11:22:28;5.90;;;1.70;;
73661;SDS011;61956;52.540;13.382;2022-07-21T11:25:04;4.35;;;1.27;;
73661;SDS011;61956;52.540;13.382;2022-07-21T11:27:39;3.87;;;1.13;;
73661;SDS011;61956;52.540;13.382;2022-07-21T11:30:11;6.07;;;2.28;;
73661;SDS011;61956;52.540;13.382;2022-07-21T11:32:45;5.78;;;2.03;;
73661;SDS011;61956;52.540;13.382;2022-07-21T11:35:19;4.13;;;1.40;;
73661;SDS011;61956;52.540;13.382;2022-07-21T11:37:49;4.80;;;2.00;;
73661;SDS011;61956;52.540;13.382;2022-07-21T11:40:19;4.03;;;1.27;;
73661;SDS011;61956;52.540;13.382;2022-07-21T11:42:50;5.60;;;2.10;;
73661;SDS011;61956;52.540;13.382;2022-07-21T11:45:24;5.63;;;2.10;;
73661;SDS011;61956;52.540;13.382;2022-07-21T11:47:54;4.57;;;1.73;;
73661;SDS011;61956;52.540;13.382;2022-07-21T11:50:26;7.75;;;2.17;;
73661;SDS011;61956;52.540;13.382;2022-07-21T11:52:55;4.60;;;1.67;;
73661;SDS011;61956;52.540;13.382;2022-07-21T11:55:27;5.05;;;1.40;;
73661;SDS011;61956;52.540;13.382;2022-07-21T11:58:01;4.57;;;1.58;;
73661;SDS011;61956;52.540;13.382;2022-07-21T12:00:30;8.75;;;2.15;;
73661;SDS011;61956;52.540;13.382;2022-07-21T12:03:04;4.30;;;1.38;;
73661;SDS011;61956;52.540;13.382;2022-07-21T12:05:38;5.87;;;1.77;;
73661;SDS011;61956;52.540;13.382;2022-07-21T12:08:08;5.78;;;2.42;;
73661;SDS011;61956;52.540;13.382;2022-07-21T12:10:38;3.67;;;1.10;;
73661;SDS011;61956;52.540;13.382;2022-07-21T12:13:10;4.28;;;1.45;;
73661;SDS011;61956;52.540;13.382;2022-07-21T12:15:39;4.88;;;1.77;;
73661;SDS011;61956;52.540;13.382;2022-07-21T12:18:17;7.30;;;2.93;;
73661;SDS011;61956;52.540;13.382;2022-07-21T12:21:00;5.82;;;1.60;;
73661;SDS011;61956;52.540;13.382;2022-07-21T12:23:32;5.40;;;2.42;;
73661;SDS011;61956;52.540;13.382;2022-07-21T12:26:02;5.40;;;1.92;;
73661;SDS011;61956;52.540;13.382;2022-07-21T12:28:41;4.25;;;1.60;;
73661;SDS011;61956;52.540;13.382;2022-07-21T12:31:13;6.43;;;2.53;;
73661;SDS011;61956;52.540;13.382;2022-07-21T12:33:46;4.07;;;1.35;;
73661;SDS011;61956;52.540;13.382;2022-07-21T12:36:18;4.55;;;1.52;;
73661;SDS011;61956;52.540;13.382;2022-07-21T12:38:49;6.60;;;2.15;;
73661;SDS011;61956;52.540;13.382;2022-07-21T12:41:21;5.57;;;1.67;;
73661;SDS011;61956;52.540;13.382;2022-07-21T12:43:53;6.60;;;1.80;;
73661;SDS011;61956;52.540;13.382;2022-07-21T12:46:28;3.65;;;1.00;;
73661;SDS011;61956;52.540;13.382;2022-07-21T12:49:05;4.18;;;1.45;;
73661;SDS011;61956;52.540;13.382;2022-07-21T12:51:41;6.40;;;1.67;;
73661;SDS011;61956;52.540;13.382;2022-07-21T12:54:23;6.30;;;1.40;;
73661;SDS011;61956;52.540;13.382;2022-07-21T12:56:52;4.10;;;1.30;;
73661;SDS011;61956;52.540;13.382;2022-07-21T12:59:21;5.63;;;1.75;;
73661;SDS011;61956;52.540;13.382;2022-07-21T13:01:50;5.32;;;1.67;;
73661;SDS011;61956;52.540;13.382;2022-07-21T13:04:19;3.28;;;1.23;;
73661;SDS011;61956;52.540;13.382;2022-07-21T13:06:51;4.63;;;1.77;;
73661;SDS011;61956;52.540;13.382;2022-07-21T13:09:20;4.33;;;1.50;;
73661;SDS011;61956;52.540;13.382;2022-07-21T13:11:49;5.68;;;1.58;;
73661;SDS011;61956;52.540;13.382;2022-07-21T13:14:18;3.83;;;1.42;;
73661;SDS011;61956;52.540;13.382;2022-07-21T13:16:47;3.63;;;1.20;;
73661;SDS011;61956;52.540;13.382;2022-07-21T13:19:18;4.93;;;1.75;;
73661;SDS011;61956;52.540;13.382;2022-07-21T13:21:47;4.83;;;1.50;;
73661;SDS011;61956;52.540;13.382;2022-07-21T13:24:18;5.40;;;2.03;;
73661;SDS011;61956;52.540;13.382;2022-07-21T13:26:47;5.30;;;1.88;;
73661;SDS011;61956;52.540;13.382;2022-07-21T13:29:16;6.80;;;1.90;;
73661;SDS011;61956;52.540;13.382;2022-07-21T13:31:45;5.32;;;1.88;;
73661;SDS011;61956;52.540;13.382;2022-07-21T13:34:14;3.53;;;1.17;;
73661;SDS011;61956;52.540;13.382;2022-07-21T13:36:44;5.00;;;1.90;;
73661;SDS011;61956;52.540;13.382;2022-07-21T13:39:13;3.75;;;1.15;;
73661;SDS011;61956;52.540;13.382;2022-07-21T13:41:45;3.75;;;1.30;;
73661;SDS011;61956;52.540;13.382;2022-07-21T13:44:14;4.60;;;1.30;;
73661;SDS011;61956;52.540;13.382;2022-07-21T13:46:43;4.33;;;1.50;;
73661;SDS011;61956;52.540;13.382;2022-07-21T13:49:12;3.83;;;1.10;;
73661;SDS011;61956;52.540;13.382;2022-07-21T13:51:41;4.72;;;1.30;;
73661;SDS011;61956;52.540;13.382;2022-07-21T13:54:10;5.65;;;2.03;;
73661;SDS011;61956;52.540;13.382;2022-07-21T13:56:39;4.75;;;1.33;;
73661;SDS011;61956;52.540;13.382;2022-07-21T13:59:11;4.47;;;1.27;;
73661;SDS011;61956;52.540;13.382;2022-07-21T14:01:40;3.60;;;1.08;;
73661;SDS011;61956;52.540;13.382;2022-07-21T14:04:10;4.75;;;1.40;;
73661;SDS011;61956;52.540;13.382;2022-07-21T14:06:39;5.20;;;1.50;;
73661;SDS011;61956;52.540;13.382;2022-07-21T14:09:11;5.50;;;1.95;;
73661;SDS011;61956;52.540;13.382;2022-07-21T14:11:40;3.80;;;1.40;;
73661;SDS011;61956;52.540;13.382;2022-07-21T14:14:13;4.25;;;1.83;;
73661;SDS011;61956;52.540;13.382;2022-07-21T14:16:47;3.13;;;0.90;;
73661;SDS011;61956;52.540;13.382;2022-07-21T14:19:18;4.28;;;1.40;;
73661;SDS011;61956;52.540;13.382;2022-07-21T14:21:48;4.90;;;2.00;;
73661;SDS011;61956;52.540;13.382;2022-07-21T14:24:18;4.60;;;1.40;;
73661;SDS011;61956;52.540;13.382;2022-07-21T14:26:59;3.17;;;0.93;;
73661;SDS011;61956;52.540;13.382;2022-07-21T14:29:31;5.18;;;1.85;;
73661;SDS011;61956;52.540;13.382;2022-07-21T14:32:00;4.53;;;1.85;;
73661;SDS011;61956;52.540;13.382;2022-07-21T14:34:29;3.75;;;1.33;;
73661;SDS011;61956;52.540;13.382;2022-07-21T14:36:58;6.37;;;1.10;;
73661;SDS011;61956;52.540;13.382;2022-07-21T14:39:27;3.53;;;1.38;;
73661;SDS011;61956;52.540;13.382;2022-07-21T14:41:56;4.88;;;1.67;;
73661;SDS011;61956;52.540;13.382;2022-07-21T14:44:25;3.95;;;1.58;;
73661;SDS011;61956;52.540;13.382;2022-07-21T14:46:57;5.72;;;2.42;;
73661;SDS011;61956;52.540;13.382;2022-07-21T14:49:26;4.80;;;1.17;;
73661;SDS011;61956;52.540;13.382;2022-07-21T14:51:55;4.30;;;1.13;;
73661;SDS011;61956;52.540;13.382;2022-07-21T14:54:24;5.85;;;1.40;;
73661;SDS011;61956;52.540;13.382;2022-07-21T14:56:54;3.65;;;1.10;;
73661;SDS011;61956;52.540;13.382;2022-07-21T14:59:23;3.05;;;0.90;;
73661;SDS011;61956;52.540;13.382;2022-07-21T15:01:52;3.70;;;1.27;;
73661;SDS011;61956;52.540;13.382;2022-07-21T15:04:24;3.53;;;1.08;;
73661;SDS011;61956;52.540;13.382;2022-07-21T15:06:56;3.47;;;1.13;;
73661;SDS011;61956;52.540;13.382;2022-07-21T15:09:25;3.80;;;1.20;;
73661;SDS011;61956;52.540;13.382;2022-07-21T15:11:54;4.53;;;1.52;;
73661;SDS011;61956;52.540;13.382;2022-07-21T15:14:23;5.60;;;1.50;;
73661;SDS011;61956;52.540;13.382;2022-07-21T15:16:52;3.80;;;1.08;;
73661;SDS011;61956;52.540;13.382;2022-07-21T15:19:25;3.67;;;1.08;;
73661;SDS011;61956;52.540;13.382;2022-07-21T15:21:54;3.97;;;1.10;;